createdAt,value
2023-07-18T00:00:03.354Z,1.00
2023-07-18T00:02:32.006Z,1.27
2023-07-18T00:05:00.512Z,1.30
2023-07-18T00:07:29.419Z,1.07
2023-07-18T00:09:59.373Z,1.20
2023-07-18T00:12:27.785Z,1.10
2023-07-18T00:14:56.186Z,0.90
2023-07-18T00:17:24.833Z,1.13
2023-07-18T00:19:53.559Z,0.90
2023-07-18T00:22:22.134Z,1.33
2023-07-18T00:24:50.563Z,0.83
2023-07-18T00:27:20.376Z,1.00
2023-07-18T00:29:48.835Z,0.90
2023-07-18T00:32:17.376Z,1.00
2023-07-18T00:34:45.940Z,1.07
2023-07-18T00:37:14.401Z,1.20
2023-07-18T00:39:42.993Z,1.23
2023-07-18T00:42:11.525Z,1.07
2023-07-18T00:44:41.368Z,0.90
2023-07-18T00:47:10.318Z,0.80
2023-07-18T00:49:38.673Z,0.90
2023-07-18T00:52:07.664Z,0.80
2023-07-18T00:54:36.272Z,0.67
2023-07-18T00:57:04.715Z,1.37
2023-07-18T00:59:33.103Z,1.27
2023-07-18T01:02:04.086Z,0.97
2023-07-18T01:04:32.966Z,0.90
2023-07-18T01:07:01.568Z,1.00
2023-07-18T01:09:30.395Z,1.03
2023-07-18T01:11:58.847Z,0.90
2023-07-18T01:14:27.369Z,0.90
2023-07-18T01:16:55.830Z,1.07
2023-07-18T01:19:25.741Z,0.90
2023-07-18T01:21:55.546Z,0.87
2023-07-18T01:24:23.982Z,1.20
2023-07-18T01:26:53.830Z,1.00
2023-07-18T01:29:22.268Z,1.00
2023-07-18T01:31:50.691Z,0.73
2023-07-18T01:34:19.477Z,0.70
2023-07-18T01:36:48.111Z,0.80
2023-07-18T01:39:17.971Z,0.80
2023-07-18T01:41:46.503Z,0.80
2023-07-18T01:44:14.945Z,0.93
2023-07-18T01:46:43.478Z,0.90
2023-07-18T01:49:12.262Z,0.70
2023-07-18T01:51:40.808Z,0.63
2023-07-18T01:54:09.492Z,0.53
2023-07-18T01:56:39.446Z,0.50
2023-07-18T01:59:07.987Z,0.37
2023-07-18T02:01:36.418Z,0.57
2023-07-18T02:04:04.946Z,0.50
2023-07-18T02:06:33.441Z,0.50
2023-07-18T02:09:01.945Z,0.73
2023-07-18T02:11:30.372Z,0.43
2023-07-18T02:14:04.755Z,0.57
2023-07-18T02:16:33.276Z,0.80
2023-07-18T02:19:02.739Z,0.50
2023-07-18T02:21:31.091Z,0.60
2023-07-18T02:23:59.452Z,0.70
2023-07-18T02:26:27.860Z,0.60
2023-07-18T02:28:57.006Z,0.50
2023-07-18T02:31:26.798Z,0.60
2023-07-18T02:33:55.211Z,0.50
2023-07-18T02:36:24.842Z,0.77
2023-07-18T02:38:53.528Z,0.40
2023-07-18T02:41:22.389Z,0.40
2023-07-18T02:43:50.812Z,0.73
2023-07-18T02:46:19.284Z,0.40
2023-07-18T02:48:49.182Z,0.50
2023-07-18T02:51:18.252Z,0.60
2023-07-18T02:53:46.987Z,0.90
2023-07-18T02:56:15.489Z,0.93
2023-07-18T02:58:43.910Z,0.80
2023-07-18T03:01:13.308Z,1.30
2023-07-18T03:03:44.716Z,0.70
2023-07-18T03:06:14.966Z,0.70
2023-07-18T03:08:43.377Z,1.17
2023-07-18T03:11:12.136Z,0.87
2023-07-18T03:13:40.796Z,1.27
2023-07-18T03:16:11.075Z,0.97
2023-07-18T03:18:43.115Z,1.10
2023-07-18T03:21:11.693Z,0.97
2023-07-18T03:23:41.582Z,1.13
2023-07-18T03:26:10.120Z,0.90
2023-07-18T03:28:38.585Z,1.30
2023-07-18T03:31:06.990Z,1.40
2023-07-18T03:33:35.558Z,1.43
2023-07-18T03:36:07.589Z,1.30
2023-07-18T03:38:36.099Z,1.60
2023-07-18T03:41:06.048Z,1.10
2023-07-18T03:43:34.700Z,1.10
2023-07-18T03:46:02.382Z,1.40
2023-07-18T03:48:31.182Z,1.20
2023-07-18T03:51:01.472Z,1.27
2023-07-18T03:53:30.274Z,1.33
2023-07-18T03:56:04.415Z,1.40
2023-07-18T03:58:34.468Z,1.00
2023-07-18T04:01:08.244Z,0.93
2023-07-18T04:03:36.969Z,1.17
2023-07-18T04:06:05.724Z,1.10
2023-07-18T04:08:34.577Z,1.00
2023-07-18T04:11:03.054Z,1.00
2023-07-18T04:13:31.535Z,1.60
2023-07-18T04:16:01.423Z,0.90
2023-07-18T04:18:29.883Z,0.97
2023-07-18T04:21:02.714Z,1.17
2023-07-18T04:23:31.253Z,1.07
2023-07-18T04:26:00.352Z,1.33
2023-07-18T04:28:29.144Z,1.23
2023-07-18T04:30:57.785Z,0.97
2023-07-18T04:33:27.648Z,1.37
2023-07-18T04:35:56.059Z,1.10
2023-07-18T04:38:24.735Z,1.07
2023-07-18T04:40:53.160Z,0.90
2023-07-18T04:43:21.478Z,1.10
2023-07-18T04:45:50.051Z,0.87
2023-07-18T04:48:19.254Z,1.30
2023-07-18T04:50:51.494Z,0.93
2023-07-18T04:53:19.939Z,1.00
2023-07-18T04:55:48.361Z,0.80
2023-07-18T04:58:16.740Z,1.30
2023-07-18T05:00:45.086Z,1.30
2023-07-18T05:03:13.614Z,1.00
2023-07-18T05:05:43.896Z,0.90
2023-07-18T05:08:15.808Z,1.17
2023-07-18T05:10:44.198Z,1.10
2023-07-18T05:13:12.591Z,0.73
2023-07-18T05:15:41.357Z,1.10
2023-07-18T05:18:10.559Z,1.07
2023-07-18T05:20:38.910Z,0.80
2023-07-18T05:23:07.588Z,0.80
2023-07-18T05:25:40.454Z,0.63
2023-07-18T05:28:09.331Z,1.20
2023-07-18T05:30:37.706Z,1.20
2023-07-18T05:33:06.143Z,0.93
2023-07-18T05:35:34.581Z,1.00
2023-07-18T05:38:03.105Z,0.70
2023-07-18T05:40:31.534Z,0.80
2023-07-18T05:43:01.239Z,0.70
2023-07-18T05:45:29.633Z,0.80
2023-07-18T05:47:58.049Z,0.70
2023-07-18T05:50:26.606Z,0.53
2023-07-18T05:52:55.331Z,0.60
2023-07-18T05:55:23.793Z,0.80
2023-07-18T05:57:52.206Z,1.10
2023-07-18T06:00:22.630Z,0.80
2023-07-18T06:02:51.104Z,1.37
2023-07-18T06:05:19.506Z,0.80
2023-07-18T06:07:47.872Z,0.97
2023-07-18T06:10:16.225Z,1.33
2023-07-18T06:12:44.599Z,1.00
2023-07-18T06:15:13.252Z,1.03
2023-07-18T06:17:43.137Z,0.77
2023-07-18T06:20:14.221Z,0.80
2023-07-18T06:22:42.929Z,1.13
2023-07-18T06:25:11.821Z,1.00
2023-07-18T06:27:40.207Z,0.60
2023-07-18T06:30:09.922Z,1.10
2023-07-18T06:32:40.643Z,0.87
2023-07-18T06:37:43.483Z,1.00
2023-07-18T06:40:13.686Z,1.50
2023-07-18T06:42:42.189Z,1.53
2023-07-18T06:45:10.713Z,1.40
2023-07-18T06:47:39.145Z,1.57
2023-07-18T06:50:08.179Z,1.83
2023-07-18T06:52:38.098Z,1.87
2023-07-18T06:55:10.662Z,2.10
2023-07-18T06:57:41.935Z,1.80
2023-07-18T07:00:14.041Z,1.77
2023-07-18T07:02:42.589Z,1.50
2023-07-18T07:05:11.257Z,1.70
2023-07-18T07:07:41.053Z,2.37
2023-07-18T07:10:10.414Z,1.80
2023-07-18T07:12:38.947Z,1.73
2023-07-18T07:15:07.694Z,1.80
2023-07-18T07:17:36.100Z,2.63
2023-07-18T07:20:05.483Z,2.33
2023-07-18T07:22:33.874Z,2.97
2023-07-18T07:25:04.257Z,2.17
2023-07-18T07:27:32.584Z,2.40
2023-07-18T07:30:00.916Z,2.10
2023-07-18T07:32:29.348Z,2.27
2023-07-18T07:34:57.704Z,1.60
2023-07-18T07:37:26.076Z,2.00
2023-07-18T07:39:54.490Z,1.97
2023-07-18T07:42:25.078Z,2.00
2023-07-18T07:44:53.551Z,2.23
2023-07-18T07:47:21.853Z,2.00
2023-07-18T07:49:50.203Z,2.13
2023-07-18T07:52:18.548Z,2.10
2023-07-18T07:54:49.681Z,2.13
2023-07-18T07:57:18.004Z,2.10
2023-07-18T07:59:47.838Z,2.30
2023-07-18T08:02:16.415Z,2.00
2023-07-18T08:04:45.349Z,1.97
2023-07-18T08:07:13.793Z,2.30
2023-07-18T08:09:42.172Z,1.87
2023-07-18T08:12:10.881Z,1.40
2023-07-18T08:14:39.618Z,1.67
2023-07-18T08:17:09.554Z,1.83
2023-07-18T08:19:37.936Z,1.33
2023-07-18T08:22:06.411Z,1.40
2023-07-18T08:24:34.732Z,2.23
2023-07-18T08:27:03.133Z,2.03
2023-07-18T08:29:32.016Z,1.77
2023-07-18T08:32:00.602Z,2.03
2023-07-18T08:34:30.293Z,1.37
2023-07-18T08:36:58.659Z,1.40
2023-07-18T08:39:27.411Z,1.30
2023-07-18T08:41:55.724Z,1.27
2023-07-18T08:44:24.074Z,1.47
2023-07-18T08:46:52.450Z,1.40
2023-07-18T08:49:20.873Z,1.20
2023-07-18T08:51:50.581Z,1.50
2023-07-18T08:54:18.977Z,1.30
2023-07-18T08:56:47.364Z,1.30
2023-07-18T08:59:15.695Z,1.40
2023-07-18T09:01:48.224Z,1.17
2023-07-18T09:04:16.864Z,1.67
2023-07-18T09:06:50.546Z,1.70
2023-07-18T09:09:22.346Z,1.50
2023-07-18T09:12:02.847Z,0.97
2023-07-18T09:14:33.253Z,1.23
2023-07-18T09:17:03.231Z,1.30
2023-07-18T09:19:38.339Z,1.50
2023-07-18T09:22:07.518Z,1.30
2023-07-18T09:24:40.196Z,1.30
2023-07-18T09:27:09.270Z,1.10
2023-07-18T09:29:37.654Z,1.60
2023-07-18T09:32:06.313Z,1.90
2023-07-18T09:34:34.711Z,1.33
2023-07-18T09:37:04.629Z,1.17
2023-07-18T09:39:32.993Z,1.37
2023-07-18T09:42:03.984Z,1.13
2023-07-18T09:44:34.207Z,1.40
2023-07-18T09:47:05.026Z,1.50
2023-07-18T09:49:34.139Z,1.93
2023-07-18T09:52:04.745Z,1.60
2023-07-18T09:54:33.304Z,1.40
2023-07-18T09:57:04.855Z,1.17
2023-07-18T09:59:33.253Z,1.60
2023-07-18T10:02:05.638Z,1.10
2023-07-18T10:04:35.124Z,1.47
2023-07-18T10:07:03.632Z,1.20
2023-07-18T10:09:32.074Z,1.33
2023-07-18T10:12:11.555Z,1.63
2023-07-18T10:14:53.927Z,1.40
2023-07-18T10:17:32.652Z,1.40
2023-07-18T10:20:01.233Z,1.30
2023-07-18T10:22:29.911Z,1.30
2023-07-18T10:25:00.958Z,1.37
2023-07-18T10:27:39.014Z,1.20
2023-07-18T10:30:07.855Z,1.77
2023-07-18T10:32:36.695Z,1.70
2023-07-18T10:35:08.091Z,1.63
2023-07-18T10:37:37.613Z,1.83
2023-07-18T10:40:07.336Z,1.30
2023-07-18T10:42:36.282Z,1.47
2023-07-18T10:45:06.507Z,1.60
2023-07-18T10:47:35.214Z,1.63
2023-07-18T10:50:04.676Z,1.67
2023-07-18T10:52:34.036Z,1.27
2023-07-18T10:55:03.707Z,1.73
2023-07-18T10:57:33.782Z,1.30
2023-07-18T11:00:02.360Z,2.10
2023-07-18T11:02:37.343Z,2.93
2023-07-18T11:05:12.510Z,1.43
2023-07-18T11:07:41.964Z,1.17
2023-07-18T11:10:10.875Z,1.50
2023-07-18T11:12:39.253Z,1.40
2023-07-18T11:15:07.891Z,1.17
2023-07-18T11:17:39.457Z,1.20
2023-07-18T11:20:08.702Z,1.23
2023-07-18T11:22:37.126Z,1.40
2023-07-18T11:25:06.053Z,1.57
2023-07-18T11:27:34.420Z,1.63
2023-07-18T11:30:03.136Z,1.63
2023-07-18T11:32:35.275Z,1.30
2023-07-18T11:35:07.592Z,1.87
2023-07-18T11:37:41.583Z,1.10
2023-07-18T11:40:11.198Z,1.23
2023-07-18T11:42:46.400Z,1.03
2023-07-18T11:45:14.797Z,0.87
2023-07-18T11:47:46.572Z,1.10
2023-07-18T11:50:16.482Z,0.67
2023-07-18T11:52:46.083Z,0.50
2023-07-18T11:55:14.578Z,0.77
2023-07-18T11:57:43.013Z,0.90
2023-07-18T12:00:12.356Z,1.00
2023-07-18T12:02:40.855Z,0.77
2023-07-18T12:05:09.541Z,0.90
2023-07-18T12:07:39.526Z,0.80
2023-07-18T12:10:08.571Z,0.87
2023-07-18T12:12:37.025Z,0.90
2023-07-18T12:15:06.329Z,1.20
2023-07-18T12:17:37.059Z,1.10
2023-07-18T12:20:06.344Z,1.00
2023-07-18T12:22:34.948Z,1.27
2023-07-18T12:25:04.828Z,1.17
2023-07-18T12:27:33.356Z,0.90
2023-07-18T12:30:01.949Z,0.80
2023-07-18T12:32:32.432Z,0.80
2023-07-18T12:35:01.095Z,1.10
2023-07-18T12:37:29.590Z,1.00
2023-07-18T12:39:58.284Z,1.07
2023-07-18T12:42:28.059Z,0.80
2023-07-18T12:44:56.406Z,1.03
2023-07-18T12:47:24.910Z,0.83
2023-07-18T12:52:24.642Z,0.80
2023-07-18T12:54:52.990Z,0.60
2023-07-18T12:57:22.578Z,1.20
2023-07-18T12:59:52.316Z,1.00
2023-07-18T13:02:20.678Z,0.73
2023-07-18T13:04:49.058Z,0.77
2023-07-18T13:07:17.428Z,0.67
2023-07-18T13:09:45.881Z,0.80
2023-07-18T13:12:14.338Z,0.70
2023-07-18T13:14:42.686Z,0.80
2023-07-18T13:17:12.447Z,0.90
2023-07-18T13:19:40.836Z,0.80
2023-07-18T13:22:09.800Z,0.70
2023-07-18T13:24:38.532Z,0.70
2023-07-18T13:27:07.115Z,0.53
2023-07-18T13:29:35.470Z,0.93
2023-07-18T13:32:03.991Z,0.60
2023-07-18T13:34:33.794Z,0.60
2023-07-18T13:37:04.038Z,0.70
2023-07-18T13:39:33.321Z,0.50
2023-07-18T13:42:01.780Z,0.77
2023-07-18T13:44:30.108Z,0.67
2023-07-18T13:46:58.533Z,0.50
2023-07-18T13:49:49.117Z,0.70
2023-07-18T13:52:17.272Z,0.70
2023-07-18T13:54:46.180Z,0.80
2023-07-18T13:57:14.606Z,1.03
2023-07-18T13:59:42.960Z,0.80
2023-07-18T14:02:11.456Z,0.60
2023-07-18T14:04:40.870Z,0.50
2023-07-18T14:07:09.297Z,0.80
2023-07-18T14:09:39.013Z,0.67
2023-07-18T14:12:07.632Z,0.73
2023-07-18T14:14:35.990Z,1.20
2023-07-18T14:17:04.396Z,0.57
2023-07-18T14:19:32.835Z,0.93
2023-07-18T14:22:01.260Z,0.63
2023-07-18T14:24:29.997Z,0.80
2023-07-18T14:26:59.763Z,0.50
2023-07-18T14:29:28.234Z,0.90
2023-07-18T14:31:56.675Z,0.90
2023-07-18T14:34:25.045Z,1.00
2023-07-18T14:36:53.416Z,1.30
2023-07-18T14:39:21.799Z,0.80
2023-07-18T14:41:50.181Z,0.60
2023-07-18T14:44:20.093Z,0.60
2023-07-18T14:46:48.468Z,0.80
2023-07-18T14:49:16.876Z,0.77
2023-07-18T14:51:45.262Z,0.80
2023-07-18T14:54:14.198Z,0.60
2023-07-18T14:56:42.669Z,0.77
2023-07-18T14:59:11.255Z,0.83
2023-07-18T15:01:42.512Z,1.03
2023-07-18T15:04:10.912Z,0.80
2023-07-18T15:06:39.626Z,1.10
2023-07-18T15:09:07.983Z,1.40
2023-07-18T15:11:36.390Z,0.70
2023-07-18T15:14:04.780Z,0.60
2023-07-18T15:16:33.251Z,0.80
2023-07-18T15:19:03.049Z,0.80
2023-07-18T15:21:31.368Z,0.60
2023-07-18T15:23:59.787Z,0.90
2023-07-18T15:26:28.236Z,0.77
2023-07-18T15:28:56.866Z,0.73
2023-07-18T15:31:25.276Z,0.50
2023-07-18T15:33:53.872Z,0.80
2023-07-18T15:36:24.885Z,0.70
2023-07-18T15:38:53.251Z,0.70
2023-07-18T15:41:21.616Z,0.77
2023-07-18T15:43:50.213Z,0.63
2023-07-18T15:46:19.599Z,0.60
2023-07-18T15:48:48.304Z,0.60
2023-07-18T15:51:16.860Z,0.50
2023-07-18T15:53:46.808Z,0.43
2023-07-18T15:56:17.713Z,0.80
2023-07-18T15:58:46.354Z,0.50
2023-07-18T16:01:14.845Z,0.50
2023-07-18T16:03:43.617Z,0.60
2023-07-18T16:06:12.040Z,0.57
2023-07-18T16:08:40.610Z,0.63
2023-07-18T16:11:10.399Z,0.63
2023-07-18T16:13:40.039Z,0.50
2023-07-18T16:16:10.562Z,0.47
2023-07-18T16:18:52.117Z,0.40
2023-07-18T16:21:20.684Z,0.60
2023-07-18T16:23:49.496Z,0.60
2023-07-18T16:26:19.982Z,0.50
2023-07-18T16:28:48.688Z,0.40
2023-07-18T16:31:17.165Z,0.33
2023-07-18T16:33:45.673Z,0.30
2023-07-18T16:36:14.094Z,0.63
2023-07-18T16:38:42.517Z,0.53
2023-07-18T16:41:11.021Z,0.40
2023-07-18T16:43:40.756Z,0.30
2023-07-18T16:46:09.118Z,0.53
2023-07-18T16:48:37.520Z,0.57
2023-07-18T16:51:05.944Z,0.43
2023-07-18T16:53:34.396Z,0.30
2023-07-18T16:56:02.850Z,0.30
2023-07-18T16:58:31.200Z,0.50
2023-07-18T17:01:00.964Z,0.30
2023-07-18T17:03:29.321Z,0.50
2023-07-18T17:05:57.637Z,0.40
2023-07-18T17:08:26.807Z,0.20
2023-07-18T17:10:55.471Z,0.40
2023-07-18T17:13:24.814Z,0.50
2023-07-18T17:15:53.410Z,0.40
2023-07-18T17:18:23.518Z,0.60
2023-07-18T17:20:51.872Z,0.30
2023-07-18T17:23:20.258Z,0.67
2023-07-18T17:25:48.593Z,0.37
2023-07-18T17:28:17.007Z,0.33
2023-07-18T17:30:45.447Z,0.50
2023-07-18T17:33:13.804Z,0.40
2023-07-18T17:35:44.386Z,0.40
2023-07-18T17:38:12.773Z,0.40
2023-07-18T17:40:41.345Z,0.40
2023-07-18T17:43:10.392Z,0.40
2023-07-18T17:45:38.902Z,0.50
2023-07-18T17:48:07.433Z,0.40
2023-07-18T17:50:35.912Z,0.57
2023-07-18T17:53:06.264Z,0.60
2023-07-18T17:55:34.791Z,0.40
2023-07-18T17:58:03.437Z,0.50
2023-07-18T18:00:31.844Z,0.40
2023-07-18T18:03:00.387Z,0.60
2023-07-18T18:05:34.816Z,0.40
2023-07-18T18:08:03.348Z,0.47
2023-07-18T18:10:33.581Z,0.50
2023-07-18T18:13:01.912Z,0.40
2023-07-18T18:15:30.277Z,0.57
2023-07-18T18:17:58.736Z,0.60
2023-07-18T18:20:27.205Z,0.50
2023-07-18T18:22:56.485Z,0.43
2023-07-18T18:25:24.915Z,0.80
2023-07-18T18:27:54.792Z,0.60
2023-07-18T18:30:23.587Z,0.50
2023-07-18T18:32:52.072Z,0.43
2023-07-18T18:35:20.524Z,0.40
2023-07-18T18:37:49.185Z,0.50
2023-07-18T18:40:18.424Z,0.37
2023-07-18T18:42:46.812Z,0.60
2023-07-18T18:45:16.766Z,0.47
2023-07-18T18:47:45.182Z,0.43
2023-07-18T18:50:13.599Z,0.40
2023-07-18T18:52:42.161Z,0.60
2023-07-18T18:55:20.022Z,0.40
2023-07-18T18:57:49.429Z,0.30
2023-07-18T19:00:19.768Z,0.73
2023-07-18T19:02:48.202Z,0.30
2023-07-18T19:05:16.609Z,0.37
2023-07-18T19:07:44.917Z,0.60
2023-07-18T19:10:13.310Z,0.40
2023-07-18T19:12:41.731Z,0.40
2023-07-18T19:15:10.399Z,0.57
2023-07-18T19:17:40.261Z,0.40
2023-07-18T19:20:09.531Z,0.60
2023-07-18T19:22:37.944Z,0.50
2023-07-18T19:25:09.054Z,0.50
2023-07-18T19:27:37.564Z,0.50
2023-07-18T19:30:06.261Z,0.53
2023-07-18T19:32:34.737Z,0.47
2023-07-18T19:35:04.676Z,0.53
2023-07-18T19:37:33.042Z,0.40
2023-07-18T19:40:01.425Z,0.60
2023-07-18T19:42:29.835Z,0.73
2023-07-18T19:44:58.225Z,0.30
2023-07-18T19:47:26.790Z,0.67
2023-07-18T19:49:56.433Z,0.40
2023-07-18T19:52:26.134Z,0.40
2023-07-18T19:54:54.491Z,0.40
2023-07-18T19:57:23.199Z,0.30
2023-07-18T19:59:51.615Z,0.50
2023-07-18T20:02:19.987Z,0.60
2023-07-18T20:04:48.358Z,0.50
2023-07-18T20:07:16.972Z,0.60
2023-07-18T20:09:46.732Z,0.50
2023-07-18T20:12:15.669Z,0.40
2023-07-18T20:14:44.039Z,0.80
2023-07-18T20:17:12.576Z,0.50
2023-07-18T20:19:40.989Z,0.70
2023-07-18T20:22:09.432Z,0.60
2023-07-18T20:24:37.754Z,0.50
2023-07-18T20:27:07.617Z,0.87
2023-07-18T20:29:36.790Z,1.27
2023-07-18T20:32:05.643Z,0.90
2023-07-18T20:34:34.287Z,1.00
2023-07-18T20:37:02.728Z,0.90
2023-07-18T20:39:32.747Z,1.10
2023-07-18T20:42:01.306Z,0.73
2023-07-18T20:44:31.574Z,1.00
2023-07-18T20:46:59.952Z,1.43
2023-07-18T20:49:28.832Z,1.00
2023-07-18T20:51:57.183Z,1.37
2023-07-18T20:54:25.637Z,1.30
2023-07-18T20:56:54.052Z,0.97
2023-07-18T20:59:22.445Z,0.97
2023-07-18T21:01:52.200Z,0.80
2023-07-18T21:04:20.599Z,0.90
2023-07-18T21:06:48.982Z,0.77
2023-07-18T21:09:17.355Z,1.00
2023-07-18T21:11:45.686Z,1.07
2023-07-18T21:14:14.011Z,1.33
2023-07-18T21:16:42.678Z,0.73
2023-07-18T21:19:12.430Z,0.90
2023-07-18T21:21:40.765Z,1.70
2023-07-18T21:24:09.117Z,1.03
2023-07-18T21:26:37.447Z,1.10
2023-07-18T21:29:05.989Z,1.30
2023-07-18T21:31:34.572Z,1.03
2023-07-18T21:34:03.177Z,1.00
2023-07-18T21:36:32.929Z,1.10
2023-07-18T21:39:01.261Z,1.30
2023-07-18T21:41:31.972Z,1.20
2023-07-18T21:44:00.377Z,1.07
2023-07-18T21:46:28.797Z,0.80
2023-07-18T21:48:57.278Z,0.90
2023-07-18T21:51:25.606Z,0.90
2023-07-18T21:53:55.278Z,0.63
2023-07-18T21:56:23.873Z,0.97
2023-07-18T21:58:52.248Z,1.10
2023-07-18T22:01:20.834Z,0.90
2023-07-18T22:03:49.380Z,1.03
2023-07-18T22:06:17.733Z,0.73
2023-07-18T22:08:46.107Z,0.90
2023-07-18T22:11:16.125Z,0.87
2023-07-18T22:13:44.572Z,0.77
2023-07-18T22:16:12.951Z,0.80
2023-07-18T22:18:41.421Z,1.10
2023-07-18T22:21:09.886Z,1.00
2023-07-18T22:23:38.218Z,0.80
2023-07-18T22:28:41.996Z,0.80
2023-07-18T22:31:10.402Z,0.77
2023-07-18T22:33:38.769Z,1.10
2023-07-18T22:36:07.245Z,1.00
2023-07-18T22:38:35.605Z,0.90
2023-07-18T22:41:04.489Z,0.90
2023-07-18T22:43:32.848Z,0.77
2023-07-18T22:46:02.564Z,0.90
2023-07-18T22:48:30.903Z,0.80
2023-07-18T22:50:59.220Z,0.90
2023-07-18T22:53:27.577Z,0.83
2023-07-18T22:55:56.304Z,0.73
2023-07-18T22:58:24.702Z,0.60
2023-07-18T23:00:53.816Z,0.70
2023-07-18T23:03:23.729Z,0.77
2023-07-18T23:05:52.159Z,0.97
2023-07-18T23:08:20.488Z,0.70
2023-07-18T23:10:48.946Z,0.63
2023-07-18T23:13:17.304Z,0.90
2023-07-18T23:15:45.646Z,0.80
2023-07-18T23:18:14.083Z,0.73
2023-07-18T23:20:43.851Z,0.73
2023-07-18T23:23:12.750Z,0.80
2023-07-18T23:25:41.235Z,0.80
2023-07-18T23:28:10.135Z,0.70
2023-07-18T23:30:38.733Z,0.77
2023-07-18T23:33:07.081Z,0.80
2023-07-18T23:35:35.400Z,1.30
2023-07-18T23:38:05.130Z,1.20
2023-07-18T23:40:33.504Z,1.40
2023-07-18T23:43:01.856Z,1.30
2023-07-18T23:45:30.408Z,1.47
2023-07-18T23:47:59.453Z,1.63
2023-07-18T23:50:28.350Z,1.37
2023-07-18T23:52:56.757Z,1.30
2023-07-18T23:55:26.590Z,1.47
2023-07-18T23:57:55.057Z,1.03
